Time;durP1;ratioP1;P1;durP2;ratioP2;P2;SDS_P1;SDS_P2;PMS_P1;PMS_P2;Temp;Humidity;BMP_temperature;BMP_pressure;BME280_temperature;BME280_humidity;BME280_pressure;Samples;Min_cycle;Max_cycle;Signal;HPM_P1;HPM_P2
2022/08/12 00:44:26;;;;;;;;;;;19.60;99.90;;;;;;5138835;27;20344;-72
2022/08/12 00:46:52;;;;;;;;;;;19.60;99.90;;;;;;5138680;27;19923;-76
2022/08/12 00:49:19;;;;;;;;;;;19.50;99.90;;;;;;5138715;27;19975;-76
2022/08/12 00:52:05;;;;;;;;;;;19.50;99.90;;;;;;5120674;27;19931;-74
2022/08/12 00:54:36;;;;;;;;;;;19.50;99.90;;;;;;5138811;27;19923;-76
2022/08/12 00:57:04;;;;;;;;;;;19.40;99.90;;;;;;5138658;27;19938;-73
2022/08/12 00:59:31;;;;;;;;;;;19.40;99.90;;;;;;5138586;27;19927;-73
2022/08/12 01:01:58;;;;;;;;;;;19.40;99.90;;;;;;5138401;27;20302;-75
2022/08/12 01:12:40;;;;;;;;;;;19.30;99.90;;;;;;5138350;27;19923;-74
2022/08/12 01:15:06;;;;;;;;;;;19.20;99.90;;;;;;5138390;27;19935;-73
2022/08/12 01:17:32;;;;;;;;;;;19.20;99.90;;;;;;5138274;27;19930;-76
2022/08/12 01:20:01;;;;;;;;;;;19.20;99.90;;;;;;5138274;27;20366;-75
2022/08/12 01:22:33;;;;;;;;;;;19.20;99.90;;;;;;5138135;27;19927;-72
2022/08/12 01:25:03;;;;;;;;;;;19.10;99.90;;;;;;5138038;27;19923;-73
2022/08/12 01:27:29;;;;;;;;;;;19.20;99.90;;;;;;5120123;27;20390;-74
2022/08/12 01:29:56;;;;;;;;;;;19.20;99.90;;;;;;5138113;27;19930;-73
2022/08/12 01:32:22;;;;;;;;;;;19.20;99.90;;;;;;5138085;27;19923;-73
2022/08/12 01:35:05;;;;;;;;;;;19.10;99.90;;;;;;5137704;27;20255;-73
2022/08/12 01:37:35;;;;;;;;;;;19.10;99.90;;;;;;5137816;27;19927;-74
2022/08/12 01:40:02;;;;;;;;;;;19.10;99.90;;;;;;5138108;27;19931;-74
2022/08/12 01:42:30;;;;;;;;;;;19.10;99.90;;;;;;5119574;27;19924;-74
2022/08/12 01:44:56;;;;;;;;;;;19.00;99.90;;;;;;5137803;27;19942;-74
2022/08/12 01:47:41;;;;;;;;;;;19.00;99.90;;;;;;5137666;27;20014;-75
2022/08/12 01:50:19;;;;;;;;;;;19.00;99.90;;;;;;5137536;27;19950;-73
2022/08/12 01:52:51;;;;;;;;;;;19.00;99.90;;;;;;5136908;27;19973;-73
2022/08/12 01:55:20;;;;;;;;;;;19.00;99.90;;;;;;5137655;27;20014;-74
2022/08/12 01:57:48;;;;;;;;;;;19.00;99.90;;;;;;5137604;27;19927;-74
2022/08/12 02:00:15;;;;;;;;;;;19.00;99.90;;;;;;5119359;27;20290;-74
2022/08/12 02:02:46;;;;;;;;;;;19.10;99.90;;;;;;5118890;27;20295;-74
2022/08/12 02:11:16;;;;;;;;;;;19.00;99.90;;;;;;5119213;27;20054;-73
2022/08/12 02:13:51;;;;;;;;;;;19.00;99.90;;;;;;5137361;27;20018;-75
2022/08/12 02:16:35;;;;;;;;;;;19.00;99.90;;;;;;5137140;27;19927;-73
2022/08/12 02:19:15;;;;;;;;;;;19.00;99.90;;;;;;5137037;27;19930;-75
2022/08/12 02:21:45;;;;;;;;;;;19.00;99.90;;;;;;5137049;27;19932;-73
2022/08/12 02:24:17;;;;;;;;;;;19.00;99.90;;;;;;5137068;27;20336;-74
2022/08/12 02:26:45;;;;;;;;;;;19.00;99.90;;;;;;5137050;27;19976;-75
2022/08/12 02:29:11;;;;;;;;;;;18.90;99.90;;;;;;5136912;27;20370;-73
2022/08/12 02:31:37;;;;;;;;;;;18.90;99.90;;;;;;5136715;27;19923;-75
2022/08/12 02:34:03;;;;;;;;;;;18.90;99.90;;;;;;5136735;27;19992;-74
2022/08/12 02:36:31;;;;;;;;;;;18.90;99.90;;;;;;5152698;27;20438;-73
2022/08/12 02:38:58;;;;;;;;;;;18.90;99.90;;;;;;5136779;27;20162;-73
2022/08/12 02:41:25;;;;;;;;;;;18.90;99.90;;;;;;5136726;27;19945;-73
2022/08/12 02:43:52;;;;;;;;;;;18.90;99.90;;;;;;5152682;27;19927;-76
2022/08/12 02:46:22;;;;;;;;;;;18.90;99.90;;;;;;5136489;27;20381;-73
2022/08/12 02:48:52;;;;;;;;;;;18.90;99.90;;;;;;5136432;27;19923;-73
2022/08/12 02:51:21;;;;;;;;;;;18.80;99.90;;;;;;5136661;27;19924;-74
2022/08/12 02:53:47;;;;;;;;;;;18.80;99.90;;;;;;5136312;27;20420;-74
2022/08/12 02:56:15;;;;;;;;;;;18.80;99.90;;;;;;5136472;27;19923;-74
2022/08/12 02:58:41;;;;;;;;;;;18.80;99.90;;;;;;5136386;27;20298;-75
2022/08/12 03:01:10;;;;;;;;;;;18.70;99.90;;;;;;5136345;27;19923;-74
2022/08/12 03:03:36;;;;;;;;;;;18.70;99.90;;;;;;5135800;27;19923;-74
2022/08/12 03:06:05;;;;;;;;;;;18.70;99.90;;;;;;5136319;27;19930;-74
2022/08/12 03:08:34;;;;;;;;;;;18.70;99.90;;;;;;5118331;27;19924;-75
2022/08/12 03:11:02;;;;;;;;;;;18.70;99.90;;;;;;5136071;27;19924;-73
2022/08/12 03:13:30;;;;;;;;;;;18.70;99.90;;;;;;5136354;27;19923;-74
2022/08/12 03:15:57;;;;;;;;;;;18.70;99.90;;;;;;5135927;27;20370;-75
2022/08/12 03:18:30;;;;;;;;;;;18.70;99.90;;;;;;5135807;27;20386;-74
2022/08/12 03:20:57;;;;;;;;;;;18.60;99.90;;;;;;5136028;27;20089;-75
2022/08/12 03:23:23;;;;;;;;;;;18.50;99.90;;;;;;5135792;27;19985;-74
2022/08/12 03:25:50;;;;;;;;;;;18.30;99.90;;;;;;5135961;27;20018;-73
2022/08/12 03:28:49;;;;;;;;;;;18.40;99.90;;;;;;5135658;27;20309;-74
2022/08/12 03:31:04;;;;;;;;;;;18.30;99.90;;;;;;5117754;27;19923;-74
2022/08/12 03:33:33;;;;;;;;;;;18.30;99.90;;;;;;5135681;27;20381;-75
2022/08/12 03:36:00;;;;;;;;;;;18.20;99.90;;;;;;5135457;27;19923;-73
2022/08/12 03:38:28;;;;;;;;;;;18.20;99.90;;;;;;5151898;27;19934;-73
2022/08/12 04:00:22;;;;;;;;;;;18.20;99.90;;;;;;5135067;27;19923;-73
2022/08/12 04:02:54;;;;;;;;;;;18.10;99.90;;;;;;5117109;27;19971;-75
2022/08/12 04:05:20;;;;;;;;;;;18.10;99.90;;;;;;5135066;27;19931;-74
2022/08/12 04:07:46;;;;;;;;;;;18.10;99.90;;;;;;5135175;27;20314;-74
2022/08/12 04:10:12;;;;;;;;;;;18.10;99.90;;;;;;5135015;27;20021;-74
2022/08/12 04:15:24;;;;;;;;;;;18.10;99.90;;;;;;5134497;27;19930;-72
2022/08/12 04:17:50;;;;;;;;;;;18.00;99.90;;;;;;5134894;27;20027;-75
2022/08/12 04:20:18;;;;;;;;;;;18.10;99.90;;;;;;5134775;27;20398;-74
2022/08/12 04:22:44;;;;;;;;;;;18.00;99.90;;;;;;5134767;27;20018;-73
2022/08/12 04:25:10;;;;;;;;;;;18.00;99.90;;;;;;5134811;27;20018;-73
2022/08/12 04:27:36;;;;;;;;;;;17.20;99.90;;;;;;5134672;27;20310;-73
2022/08/12 04:30:02;;;;;;;;;;;17.90;99.90;;;;;;5134813;27;19930;-74
2022/08/12 04:32:29;;;;;;;;;;;17.90;99.90;;;;;;5134827;27;19927;-75
2022/08/12 04:34:55;;;;;;;;;;;17.90;99.90;;;;;;5134708;27;19978;-73
2022/08/12 04:37:20;;;;;;;;;;;17.90;99.90;;;;;;5134738;28;19976;-73
2022/08/12 04:39:47;;;;;;;;;;;17.90;99.90;;;;;;5116651;28;19927;-74
2022/08/12 04:42:12;;;;;;;;;;;17.90;99.90;;;;;;5134388;28;19923;-73
2022/08/12 04:44:38;;;;;;;;;;;17.90;99.90;;;;;;5134792;28;19976;-73
2022/08/12 04:47:03;;;;;;;;;;;17.90;99.90;;;;;;5134653;28;19970;-76
2022/08/12 04:49:30;;;;;;;;;;;18.00;99.90;;;;;;5150688;27;19949;-73
2022/08/12 04:51:58;;;;;;;;;;;17.90;99.90;;;;;;5116261;28;20022;-75
2022/08/12 04:54:23;;;;;;;;;;;17.90;99.90;;;;;;5134453;28;19927;-74
2022/08/12 04:56:50;;;;;;;;;;;17.90;99.90;;;;;;5134405;28;19969;-74
2022/08/12 04:59:16;;;;;;;;;;;18.00;99.90;;;;;;5134650;28;20041;-74
2022/08/12 05:01:41;;;;;;;;;;;17.90;99.90;;;;;;5134577;28;20409;-73
2022/08/12 05:04:08;;;;;;;;;;;17.90;99.90;;;;;;5134387;28;19946;-73
2022/08/12 05:06:33;;;;;;;;;;;17.90;99.90;;;;;;5134504;28;19977;-73
2022/08/12 05:08:59;;;;;;;;;;;17.90;99.90;;;;;;5150741;27;19977;-73
2022/08/12 05:11:25;;;;;;;;;;;17.90;99.90;;;;;;5134368;28;20271;-73
2022/08/12 05:13:55;;;;;;;;;;;18.00;99.90;;;;;;5134553;28;19930;-77
2022/08/12 05:16:20;;;;;;;;;;;18.00;99.90;;;;;;5134260;28;19930;-74
2022/08/12 05:18:46;;;;;;;;;;;18.00;99.90;;;;;;5134606;28;19928;-73
2022/08/12 05:21:11;;;;;;;;;;;18.00;99.90;;;;;;5134345;28;19927;-73
2022/08/12 05:23:38;;;;;;;;;;;18.00;99.90;;;;;;5134085;28;19928;-75
2022/08/12 05:26:04;;;;;;;;;;;18.00;99.90;;;;;;5136101;27;20271;-73
2022/08/12 05:28:31;;;;;;;;;;;18.00;99.90;;;;;;5137936;27;19952;-74
2022/08/12 05:30:57;;;;;;;;;;;18.10;99.90;;;;;;5138273;27;19934;-75
2022/08/12 05:33:30;;;;;;;;;;;18.10;99.90;;;;;;5138095;27;19924;-75
2022/08/12 05:35:55;;;;;;;;;;;18.10;99.90;;;;;;5137899;27;19923;-76
2022/08/12 05:41:17;;;;;;;;;;;17.80;99.90;;;;;;5137743;27;19977;-74
2022/08/12 05:43:50;;;;;;;;;;;18.20;99.90;;;;;;5137827;27;20018;-75
2022/08/12 05:46:16;;;;;;;;;;;18.20;99.90;;;;;;5137811;27;20439;-73
2022/08/12 05:48:42;;;;;;;;;;;18.30;99.90;;;;;;5137698;27;19924;-73
2022/08/12 05:51:09;;;;;;;;;;;18.30;99.90;;;;;;5137696;27;19969;-73
2022/08/12 05:53:38;;;;;;;;;;;18.40;99.90;;;;;;5137459;27;19991;-74
2022/08/12 05:56:04;;;;;;;;;;;18.40;99.90;;;;;;5154107;27;19927;-72
2022/08/12 05:58:29;;;;;;;;;;;18.40;99.90;;;;;;5137588;27;20018;-73
2022/08/12 06:00:55;;;;;;;;;;;18.50;99.90;;;;;;5137585;27;19949;-73
2022/08/12 06:03:21;;;;;;;;;;;18.50;99.90;;;;;;5136304;27;20397;-74
2022/08/12 06:05:48;;;;;;;;;;;18.50;99.90;;;;;;5137327;27;19946;-76
2022/08/12 06:08:15;;;;;;;;;;;18.50;99.90;;;;;;5119215;27;20317;-74
2022/08/12 06:10:40;;;;;;;;;;;18.30;99.90;;;;;;5137483;27;20020;-74
2022/08/12 06:13:06;;;;;;;;;;;18.60;99.90;;;;;;5118145;27;20302;-73
2022/08/12 06:15:36;;;;;;;;;;;18.60;99.90;;;;;;5119163;27;19923;-73
2022/08/12 06:18:06;;;;;;;;;;;18.60;99.90;;;;;;5137020;27;19927;-73
2022/08/12 06:20:31;;;;;;;;;;;18.70;99.90;;;;;;5137060;27;19923;-73
2022/08/12 06:22:57;;;;;;;;;;;18.70;99.90;;;;;;5136743;27;19923;-77
2022/08/12 06:25:25;;;;;;;;;;;18.40;99.90;;;;;;5137078;27;20339;-73
2022/08/12 06:27:51;;;;;;;;;;;18.80;99.90;;;;;;5137052;27;19923;-74
2022/08/12 06:30:19;;;;;;;;;;;18.90;99.90;;;;;;5136716;27;19927;-74
2022/08/12 06:32:46;;;;;;;;;;;18.90;99.90;;;;;;5118789;27;19934;-75
2022/08/12 06:35:12;;;;;;;;;;;18.90;99.90;;;;;;5136571;27;20434;-75
2022/08/12 06:37:48;;;;;;;;;;;19.00;99.90;;;;;;5136054;27;20022;-73
2022/08/12 06:40:15;;;;;;;;;;;19.00;99.90;;;;;;5136881;27;19930;-74
2022/08/12 06:42:46;;;;;;;;;;;19.10;99.90;;;;;;5118369;27;19932;-73
2022/08/12 06:45:15;;;;;;;;;;;19.10;99.90;;;;;;5136603;27;19976;-74
2022/08/12 06:47:41;;;;;;;;;;;19.20;99.90;;;;;;5152890;27;19924;-74
2022/08/12 06:50:07;;;;;;;;;;;19.20;99.90;;;;;;5136487;27;20412;-74
2022/08/12 06:52:32;;;;;;;;;;;19.30;99.90;;;;;;5136430;27;19923;-74
2022/08/12 06:54:58;;;;;;;;;;;19.40;99.90;;;;;;5136479;27;19923;-75
2022/08/12 06:57:26;;;;;;;;;;;19.50;99.90;;;;;;5136457;27;19924;-75
2022/08/12 06:59:52;;;;;;;;;;;19.50;99.90;;;;;;5136334;27;19923;-74
2022/08/12 07:02:19;;;;;;;;;;;19.70;99.90;;;;;;5136114;27;19968;-72
2022/08/12 07:04:46;;;;;;;;;;;19.70;99.90;;;;;;5136177;27;19927;-75
2022/08/12 07:07:11;;;;;;;;;;;19.80;99.90;;;;;;5117989;27;19931;-75
2022/08/12 07:09:38;;;;;;;;;;;19.90;99.90;;;;;;5118200;27;20405;-73
2022/08/12 07:12:04;;;;;;;;;;;19.90;99.90;;;;;;5147861;27;19976;-75
2022/08/12 07:14:29;;;;;;;;;;;20.00;99.90;;;;;;5151458;27;19928;-73
2022/08/12 07:17:00;;;;;;;;;;;20.10;99.90;;;;;;5140322;27;19931;-74
2022/08/12 07:19:26;;;;;;;;;;;20.20;99.90;;;;;;5135953;27;19934;-74
2022/08/12 07:21:52;;;;;;;;;;;20.30;99.90;;;;;;5135825;27;19923;-74
2022/08/12 07:24:18;;;;;;;;;;;20.30;99.90;;;;;;5135903;27;19924;-73
2022/08/12 07:26:43;;;;;;;;;;;20.40;99.90;;;;;;5135977;27;19975;-74
2022/08/12 07:29:09;;;;;;;;;;;20.50;99.90;;;;;;5135786;27;19930;-72
2022/08/12 07:31:36;;;;;;;;;;;20.60;99.90;;;;;;5135772;27;19930;-73
2022/08/12 07:34:02;;;;;;;;;;;20.60;99.90;;;;;;5135661;27;20028;-73
2022/08/12 07:36:27;;;;;;;;;;;20.70;99.90;;;;;;5135354;27;19981;-75
2022/08/12 07:38:53;;;;;;;;;;;20.80;99.90;;;;;;5135654;27;20010;-73
2022/08/12 07:41:29;;;;;;;;;;;20.80;99.90;;;;;;5135639;27;20403;-73
2022/08/12 07:43:56;;;;;;;;;;;20.90;99.90;;;;;;5135174;27;20393;-75
2022/08/12 07:46:31;;;;;;;;;;;21.00;99.90;;;;;;5135442;27;19923;-73
2022/08/12 07:48:59;;;;;;;;;;;21.10;99.90;;;;;;5134333;27;20004;-74
2022/08/12 07:51:25;;;;;;;;;;;21.10;99.90;;;;;;5135504;27;19930;-73
2022/08/12 07:53:51;;;;;;;;;;;21.20;99.90;;;;;;5133490;27;19924;-73
2022/08/12 07:56:17;;;;;;;;;;;21.20;99.90;;;;;;5135336;27;19970;-74
2022/08/12 07:58:43;;;;;;;;;;;21.30;99.90;;;;;;5135262;27;19970;-74
2022/08/12 08:01:10;;;;;;;;;;;21.40;99.90;;;;;;5135168;27;20370;-73
2022/08/12 08:03:36;;;;;;;;;;;21.40;99.90;;;;;;5134849;27;20389;-73
2022/08/12 08:06:02;;;;;;;;;;;21.50;99.90;;;;;;5135075;27;20305;-73
2022/08/12 08:08:28;;;;;;;;;;;21.60;99.90;;;;;;5135197;27;19923;-73
2022/08/12 08:12:52;;;;;;;;;;;21.60;99.90;;;;;;5135192;27;19976;-73
2022/08/12 08:13:42;;;;;;;;;;;21.70;99.90;;;;;;5134738;27;19977;-74
2022/08/12 08:16:07;;;;;;;;;;;21.80;99.90;;;;;;5116907;27;19967;-73
2022/08/12 08:18:33;;;;;;;;;;;21.90;99.90;;;;;;5134763;27;19927;-73
2022/08/12 08:20:58;;;;;;;;;;;21.90;99.90;;;;;;5117010;27;20369;-75
2022/08/12 08:24:13;;;;;;;;;;;22.00;99.90;;;;;;5116787;27;19971;-73
2022/08/12 08:26:14;;;;;;;;;;;22.10;99.90;;;;;;5151162;27;19923;-73
2022/08/12 08:28:40;;;;;;;;;;;22.20;99.90;;;;;;5134810;27;19970;-75
2022/08/12 08:31:05;;;;;;;;;;;22.20;99.90;;;;;;5116669;27;19973;-74
2022/08/12 08:33:31;;;;;;;;;;;22.30;99.90;;;;;;5134829;27;20369;-73
2022/08/12 08:35:58;;;;;;;;;;;22.40;99.90;;;;;;5134487;27;20337;-73
2022/08/12 08:38:23;;;;;;;;;;;22.60;99.90;;;;;;5134719;27;19948;-74
2022/08/12 08:43:33;;;;;;;;;;;22.60;99.90;;;;;;5134638;28;19931;-73
2022/08/12 08:46:04;;;;;;;;;;;22.70;99.90;;;;;;5134820;28;19923;-74
2022/08/12 08:48:32;;;;;;;;;;;22.80;99.90;;;;;;5134587;28;19931;-74
2022/08/12 08:50:58;;;;;;;;;;;22.90;99.90;;;;;;5134540;28;19966;-74
2022/08/12 08:53:23;;;;;;;;;;;23.00;99.90;;;;;;5134575;28;20362;-74
2022/08/12 08:55:49;;;;;;;;;;;23.10;99.90;;;;;;5134541;28;19924;-73
2022/08/12 08:58:14;;;;;;;;;;;23.20;99.90;;;;;;5134403;28;19971;-75
2022/08/12 09:00:41;;;;;;;;;;;23.30;99.90;;;;;;5117389;27;19988;-74
2022/08/12 09:03:07;;;;;;;;;;;23.30;99.90;;;;;;5138604;27;19949;-73
2022/08/12 09:05:33;;;;;;;;;;;23.40;99.90;;;;;;5138628;27;19924;-73
2022/08/12 09:07:59;;;;;;;;;;;23.50;99.90;;;;;;5138570;27;19923;-75
2022/08/12 09:10:25;;;;;;;;;;;23.60;99.90;;;;;;5138579;27;19923;-75
2022/08/12 09:15:35;;;;;;;;;;;23.90;99.90;;;;;;5154467;27;19949;-74
2022/08/12 09:18:01;;;;;;;;;;;24.00;99.90;;;;;;5137561;27;19923;-73
2022/08/12 09:20:28;;;;;;;;;;;24.10;99.90;;;;;;5138446;27;19972;-74
2022/08/12 09:22:54;;;;;;;;;;;24.20;99.90;;;;;;5138148;27;19930;-74
2022/08/12 09:25:20;;;;;;;;;;;24.30;99.90;;;;;;5138177;27;20259;-73
2022/08/12 09:27:46;;;;;;;;;;;24.40;99.90;;;;;;5138028;27;19923;-74
2022/08/12 09:30:14;;;;;;;;;;;24.50;99.90;;;;;;5138235;27;20068;-73
2022/08/12 09:32:49;;;;;;;;;;;24.60;99.90;;;;;;5137952;27;19923;-74
2022/08/12 09:35:19;;;;;;;;;;;24.70;99.90;;;;;;5137909;27;20379;-74
2022/08/12 09:37:46;;;;;;;;;;;24.80;99.90;;;;;;5137901;27;19993;-73
2022/08/12 09:40:13;;;;;;;;;;;24.90;99.90;;;;;;5154203;27;19923;-75
2022/08/12 09:45:23;;;;;;;;;;;25.10;99.90;;;;;;5154026;27;19923;-73
2022/08/12 09:47:49;;;;;;;;;;;25.20;99.90;;;;;;5137443;27;20048;-74
2022/08/12 09:50:16;;;;;;;;;;;25.30;99.90;;;;;;5137727;27;20006;-73
2022/08/12 09:52:43;;;;;;;;;;;25.50;99.90;;;;;;5137628;27;20400;-75
2022/08/12 09:55:10;;;;;;;;;;;25.50;99.20;;;;;;5137546;27;19924;-73
2022/08/12 09:57:36;;;;;;;;;;;25.70;99.90;;;;;;5137742;27;19923;-75
2022/08/12 10:00:03;;;;;;;;;;;25.80;99.90;;;;;;5137687;27;20324;-75
2022/08/12 10:02:29;;;;;;;;;;;25.80;97.50;;;;;;5137412;27;19923;-77
2022/08/12 10:04:56;;;;;;;;;;;26.00;99.70;;;;;;5137390;27;20026;-74
2022/08/12 10:07:22;;;;;;;;;;;26.10;99.90;;;;;;5137277;27;19927;-74
2022/08/12 10:09:49;;;;;;;;;;;26.20;99.90;;;;;;5137124;27;19976;-76
2022/08/12 10:15:00;;;;;;;;;;;26.40;99.20;;;;;;5121926;27;19970;-75
2022/08/12 10:17:26;;;;;;;;;;;26.50;99.90;;;;;;5137064;27;19931;-74
2022/08/12 10:19:52;;;;;;;;;;;26.60;97.60;;;;;;5153258;27;19927;-74
2022/08/12 10:22:18;;;;;;;;;;;26.70;93.30;;;;;;5137118;27;20293;-75
2022/08/12 10:29:35;;;;;;;;;;;26.70;93.60;;;;;;5118560;27;19978;-74
2022/08/12 10:30:13;;;;;;;;;;;26.80;94.10;;;;;;5136930;27;19927;-75
2022/08/12 10:32:39;;;;;;;;;;;26.90;91.10;;;;;;5136790;27;20311;-74
2022/08/12 10:35:04;;;;;;;;;;;27.00;86.70;;;;;;5135156;27;19924;-73
2022/08/12 10:37:30;;;;;;;;;;;27.00;94.20;;;;;;5136833;27;20017;-77
2022/08/12 10:39:56;;;;;;;;;;;27.00;92.60;;;;;;5136789;27;19923;-74
2022/08/12 10:45:07;;;;;;;;;;;27.10;81.10;;;;;;5152685;27;19930;-74
2022/08/12 10:47:33;;;;;;;;;;;27.20;73.40;;;;;;5118330;27;19968;-76
2022/08/12 10:49:59;;;;;;;;;;;27.20;80.40;;;;;;5136721;27;20399;-74
2022/08/12 10:52:30;;;;;;;;;;;27.20;74.30;;;;;;5136644;27;19927;-74
2022/08/12 10:54:56;;;;;;;;;;;27.20;78.10;;;;;;5136443;27;19976;-75
2022/08/12 10:57:26;;;;;;;;;;;27.30;74.80;;;;;;5118193;27;20267;-75
2022/08/12 10:59:56;;;;;;;;;;;27.20;78.80;;;;;;5136313;27;19970;-75
2022/08/12 11:02:30;;;;;;;;;;;27.30;74.10;;;;;;5136110;27;19989;-74
2022/08/12 11:04:58;;;;;;;;;;;27.30;78.60;;;;;;5152794;27;19924;-76
2022/08/12 11:07:27;;;;;;;;;;;27.30;80.00;;;;;;5118134;27;19923;-76
2022/08/12 11:09:52;;;;;;;;;;;27.30;72.80;;;;;;5136154;27;20382;-76
2022/08/12 11:12:18;;;;;;;;;;;27.30;74.00;;;;;;5135947;27;19931;-75
2022/08/12 11:14:44;;;;;;;;;;;27.30;82.20;;;;;;5152261;27;20366;-74
2022/08/12 11:17:11;;;;;;;;;;;27.30;72.00;;;;;;5135773;27;19924;-76
2022/08/12 11:19:38;;;;;;;;;;;27.40;73.80;;;;;;5135926;27;20420;-76
2022/08/12 11:22:05;;;;;;;;;;;27.40;73.30;;;;;;5135915;27;20023;-73
2022/08/12 11:24:31;;;;;;;;;;;27.40;75.40;;;;;;5135766;27;20286;-75
2022/08/12 11:26:57;;;;;;;;;;;27.40;71.90;;;;;;5135738;27;19927;-76
2022/08/12 11:29:23;;;;;;;;;;;27.40;71.10;;;;;;5150979;27;20305;-74
2022/08/12 11:31:49;;;;;;;;;;;27.40;68.70;;;;;;5135635;27;19924;-75
2022/08/12 11:34:17;;;;;;;;;;;27.40;71.50;;;;;;5135776;27;20343;-76
2022/08/12 11:36:50;;;;;;;;;;;27.50;70.00;;;;;;5135506;27;19923;-75
2022/08/12 11:39:16;;;;;;;;;;;27.50;71.10;;;;;;5135533;27;19968;-76
2022/08/12 11:41:42;;;;;;;;;;;27.50;73.80;;;;;;5135512;27;19930;-76
2022/08/12 11:44:07;;;;;;;;;;;27.50;67.50;;;;;;5135078;27;20022;-76
2022/08/12 11:46:34;;;;;;;;;;;27.50;69.00;;;;;;5117075;27;19927;-76
2022/08/12 11:49:00;;;;;;;;;;;27.50;71.70;;;;;;5135440;27;19924;-76
2022/08/12 11:51:25;;;;;;;;;;;27.60;69.20;;;;;;5117228;27;19975;-76
2022/08/12 11:53:51;;;;;;;;;;;27.60;68.60;;;;;;5135267;27;19986;-76
2022/08/12 11:56:17;;;;;;;;;;;27.60;73.30;;;;;;5135353;27;19935;-76
2022/08/12 11:58:42;;;;;;;;;;;27.60;69.90;;;;;;5135183;27;19928;-76
2022/08/12 12:01:08;;;;;;;;;;;27.60;68.50;;;;;;5135133;27;19924;-74
2022/08/12 12:03:33;;;;;;;;;;;27.60;67.80;;;;;;5135158;27;20420;-75
2022/08/12 12:05:59;;;;;;;;;;;27.70;65.40;;;;;;5117255;27;19923;-75
2022/08/12 12:08:25;;;;;;;;;;;27.70;62.50;;;;;;5135174;27;20400;-75
2022/08/12 12:10:51;;;;;;;;;;;27.70;66.80;;;;;;5135169;27;19923;-77
2022/08/12 12:13:17;;;;;;;;;;;27.70;65.10;;;;;;5135192;27;20030;-74
2022/08/12 12:15:44;;;;;;;;;;;27.70;65.60;;;;;;5116466;27;20377;-74
2022/08/12 12:18:22;;;;;;;;;;;27.70;64.40;;;;;;5134954;27;19923;-75
2022/08/12 12:20:49;;;;;;;;;;;27.80;65.20;;;;;;5134993;27;19928;-75
2022/08/12 12:23:14;;;;;;;;;;;27.80;64.70;;;;;;5134854;27;19930;-75
2022/08/12 12:25:40;;;;;;;;;;;27.80;68.30;;;;;;5134781;27;19923;-77
2022/08/12 12:28:06;;;;;;;;;;;27.80;64.70;;;;;;5134751;27;19924;-75
2022/08/12 12:30:32;;;;;;;;;;;27.80;64.50;;;;;;5116592;27;19923;-76
2022/08/12 12:32:58;;;;;;;;;;;27.80;66.40;;;;;;5133848;27;20531;-76
2022/08/12 12:35:23;;;;;;;;;;;27.80;67.40;;;;;;5134102;27;20006;-75
2022/08/12 12:37:59;;;;;;;;;;;27.90;63.00;;;;;;5134809;27;19938;-74
2022/08/12 12:40:25;;;;;;;;;;;27.80;66.00;;;;;;5134660;27;20289;-75
2022/08/12 12:42:51;;;;;;;;;;;27.90;64.00;;;;;;5134436;28;19950;-75
2022/08/12 12:45:17;;;;;;;;;;;27.90;62.50;;;;;;5116187;28;20381;-75
2022/08/12 12:47:58;;;;;;;;;;;27.90;63.70;;;;;;5116432;28;19923;-76
2022/08/12 12:50:28;;;;;;;;;;;27.90;62.80;;;;;;5134628;28;20010;-75
2022/08/12 12:52:53;;;;;;;;;;;27.90;61.90;;;;;;5134591;28;19923;-76
2022/08/12 12:55:20;;;;;;;;;;;27.90;60.70;;;;;;5134384;28;20331;-75
2022/08/12 12:57:46;;;;;;;;;;;27.90;62.80;;;;;;5134475;28;19924;-75
2022/08/12 13:00:15;;;;;;;;;;;27.90;61.20;;;;;;5134633;28;20381;-75
2022/08/12 13:02:44;;;;;;;;;;;27.90;64.70;;;;;;5134521;28;20008;-75
2022/08/12 13:05:10;;;;;;;;;;;27.90;60.90;;;;;;5134359;28;19935;-75
2022/08/12 13:07:40;;;;;;;;;;;27.90;63.80;;;;;;5134363;28;20300;-77
2022/08/12 13:10:05;;;;;;;;;;;28.00;60.80;;;;;;5134334;28;19923;-75
2022/08/12 13:12:33;;;;;;;;;;;28.00;61.50;;;;;;5134678;28;20361;-75
2022/08/12 13:14:59;;;;;;;;;;;28.00;63.70;;;;;;5134477;28;19976;-75
2022/08/12 13:17:24;;;;;;;;;;;28.10;61.70;;;;;;5134345;28;19938;-74
2022/08/12 13:19:50;;;;;;;;;;;28.10;59.70;;;;;;5134049;28;19923;-76
2022/08/12 13:22:18;;;;;;;;;;;28.10;58.60;;;;;;5116319;28;20106;-74
2022/08/12 13:24:44;;;;;;;;;;;28.10;57.60;;;;;;5134099;28;19923;-75
2022/08/12 13:27:10;;;;;;;;;;;28.10;58.10;;;;;;5134123;28;19931;-74
2022/08/12 13:29:37;;;;;;;;;;;28.10;60.40;;;;;;5116202;28;19923;-75
2022/08/12 13:32:04;;;;;;;;;;;28.10;58.50;;;;;;5134341;28;19970;-75
2022/08/12 13:34:31;;;;;;;;;;;28.10;59.00;;;;;;5134156;28;19923;-75
2022/08/12 13:36:57;;;;;;;;;;;28.00;60.60;;;;;;5133861;28;19935;-75
2022/08/12 13:39:24;;;;;;;;;;;28.10;60.70;;;;;;5133980;28;19974;-76
2022/08/12 13:41:50;;;;;;;;;;;27.70;60.40;;;;;;5133850;28;19928;-75
2022/08/12 13:44:16;;;;;;;;;;;28.20;59.60;;;;;;5134171;28;20384;-75
2022/08/12 13:46:42;;;;;;;;;;;28.20;59.30;;;;;;5115780;28;19970;-75
2022/08/12 13:49:12;;;;;;;;;;;28.20;61.70;;;;;;5137375;27;19923;-74
2022/08/12 13:51:38;;;;;;;;;;;28.20;61.20;;;;;;5153864;27;19923;-75
2022/08/12 13:54:04;;;;;;;;;;;28.20;59.50;;;;;;5137479;27;19923;-75
2022/08/12 13:56:34;;;;;;;;;;;28.20;61.40;;;;;;5137494;27;19924;-75
2022/08/12 13:59:00;;;;;;;;;;;28.30;60.20;;;;;;5137778;27;19923;-75
2022/08/12 14:01:26;;;;;;;;;;;28.30;60.70;;;;;;5137690;27;19969;-75
2022/08/12 14:03:52;;;;;;;;;;;28.30;61.40;;;;;;5137365;27;19930;-77
2022/08/12 14:06:19;;;;;;;;;;;28.30;60.00;;;;;;5137465;27;19979;-75
2022/08/12 14:08:47;;;;;;;;;;;28.30;60.00;;;;;;5137413;27;19930;-75
2022/08/12 14:11:13;;;;;;;;;;;28.40;59.70;;;;;;5137238;27;20339;-75
2022/08/12 14:13:40;;;;;;;;;;;28.40;60.00;;;;;;5137542;27;19927;-74
2022/08/12 14:16:09;;;;;;;;;;;28.40;59.60;;;;;;5137332;27;19923;-75
2022/08/12 14:18:37;;;;;;;;;;;28.40;60.90;;;;;;5137222;27;19923;-75
2022/08/12 14:21:04;;;;;;;;;;;28.40;59.40;;;;;;5137218;27;20364;-74
2022/08/12 14:23:34;;;;;;;;;;;28.40;59.20;;;;;;5137023;27;20320;-76
2022/08/12 14:26:00;;;;;;;;;;;28.40;58.60;;;;;;5136986;27;19977;-74
2022/08/12 14:28:27;;;;;;;;;;;28.50;58.90;;;;;;5119166;27;19930;-76
2022/08/12 14:30:59;;;;;;;;;;;28.50;58.40;;;;;;5136853;27;20317;-75
2022/08/12 14:33:24;;;;;;;;;;;28.40;58.50;;;;;;5153055;27;19924;-76
2022/08/12 14:35:51;;;;;;;;;;;28.30;58.60;;;;;;5115151;28;19930;-75
2022/08/12 14:38:19;;;;;;;;;;;28.50;56.90;;;;;;5116216;28;20022;-75
2022/08/12 14:40:46;;;;;;;;;;;28.60;56.50;;;;;;5115731;28;19924;-75
2022/08/12 14:43:15;;;;;;;;;;;28.60;57.00;;;;;;5116045;28;19927;-75
2022/08/12 14:45:42;;;;;;;;;;;28.60;57.20;;;;;;5116254;28;19923;-76
2022/08/12 14:48:08;;;;;;;;;;;28.50;55.80;;;;;;5115919;28;20354;-74
2022/08/12 14:50:33;;;;;;;;;;;28.60;56.60;;;;;;5116029;28;19977;-75
2022/08/12 14:52:59;;;;;;;;;;;28.60;56.60;;;;;;5114753;28;19923;-76
2022/08/12 14:55:30;;;;;;;;;;;28.60;55.70;;;;;;5115719;28;19970;-74
2022/08/12 14:57:56;;;;;;;;;;;28.60;55.80;;;;;;5115640;28;19923;-76
2022/08/12 15:03:12;;;;;;;;;;;28.70;55.80;;;;;;5115701;28;20397;-76
2022/08/12 15:05:38;;;;;;;;;;;28.70;57.30;;;;;;5114518;28;19931;-77
2022/08/12 15:08:13;;;;;;;;;;;28.70;55.50;;;;;;5114261;28;19924;-76
2022/08/12 15:10:40;;;;;;;;;;;28.80;56.60;;;;;;5115828;28;20378;-75
2022/08/12 15:13:06;;;;;;;;;;;28.80;53.60;;;;;;5115651;28;19975;-76
2022/08/12 15:15:32;;;;;;;;;;;28.90;54.10;;;;;;5115537;28;19931;-75
2022/08/12 15:18:00;;;;;;;;;;;28.90;54.10;;;;;;5115423;28;19924;-74
2022/08/12 15:20:26;;;;;;;;;;;28.90;54.00;;;;;;5115270;28;19924;-75
2022/08/12 15:22:53;;;;;;;;;;;29.00;54.50;;;;;;5115482;28;19947;-76
2022/08/12 15:25:19;;;;;;;;;;;29.00;55.50;;;;;;5115553;28;20019;-76
2022/08/12 15:27:48;;;;;;;;;;;29.10;53.80;;;;;;5115228;28;20408;-75
2022/08/12 15:30:18;;;;;;;;;;;29.20;56.40;;;;;;5115284;28;20381;-76
2022/08/12 15:32:45;;;;;;;;;;;29.20;55.10;;;;;;5114784;28;19923;-75
2022/08/12 15:35:13;;;;;;;;;;;29.30;54.50;;;;;;5119938;27;19946;-76
2022/08/12 15:37:39;;;;;;;;;;;29.40;53.80;;;;;;5135419;27;20382;-77
2022/08/12 15:40:06;;;;;;;;;;;29.40;54.60;;;;;;5117562;27;19923;-75
2022/08/12 15:42:33;;;;;;;;;;;29.40;55.20;;;;;;5135657;27;19923;-76
2022/08/12 15:44:58;;;;;;;;;;;29.50;54.70;;;;;;5135519;27;20018;-75
2022/08/12 15:47:24;;;;;;;;;;;29.40;54.80;;;;;;5135556;27;19975;-75
2022/08/12 15:49:50;;;;;;;;;;;29.40;53.80;;;;;;5135260;27;19976;-76
2022/08/12 15:52:27;;;;;;;;;;;29.50;54.30;;;;;;5135295;27;19927;-76
2022/08/12 15:54:52;;;;;;;;;;;29.50;55.20;;;;;;5135484;27;19930;-75
2022/08/12 15:57:18;;;;;;;;;;;29.50;56.10;;;;;;5135373;27;19923;-77
2022/08/12 15:59:45;;;;;;;;;;;29.50;54.00;;;;;;5135316;27;19930;-75